Time;durP1;ratioP1;P1;durP2;ratioP2;P2;SDS_P1;SDS_P2;PMS_P1;PMS_P2;Temp;Humidity;BMP_temperature;BMP_pressure;BME280_temperature;BME280_humidity;BME280_pressure;Samples;Min_cycle;Max_cycle;Signal;HPM_P1;HPM_P2
2023/10/10 00:02:19;;;;;;;32.40;13.73;;;;;;;12.19;100.00;101345.56;5035125;28;20040;-85
2023/10/10 00:04:48;;;;;;;17.73;10.35;;;;;;;12.17;100.00;101345.72;5033664;28;20034;-86
2023/10/10 00:07:17;;;;;;;24.13;12.32;;;;;;;12.18;100.00;101344.75;5023823;28;20034;-86
2023/10/10 00:09:44;;;;;;;22.08;10.98;;;;;;;12.16;100.00;101352.09;5038107;28;20057;-87
2023/10/10 00:12:18;;;;;;;26.48;11.95;;;;;;;12.06;100.00;101335.31;5024060;28;20495;-86
2023/10/10 00:14:45;;;;;;;31.02;12.07;;;;;;;12.15;100.00;101339.72;5039845;28;20033;-85
2023/10/10 00:17:10;;;;;;;21.42;11.63;;;;;;;12.13;100.00;101332.84;5047668;28;20061;-86
2023/10/10 00:19:54;;;;;;;20.90;12.00;;;;;;;12.14;100.00;101338.03;5034721;28;20076;-86
2023/10/10 00:22:26;;;;;;;26.95;12.18;;;;;;;12.13;100.00;101327.50;5017850;28;20036;-86
2023/10/10 00:24:52;;;;;;;22.17;11.05;;;;;;;12.14;100.00;101337.19;5039271;28;20037;-86
2023/10/10 00:27:18;;;;;;;26.15;11.45;;;;;;;12.09;100.00;101332.31;5036932;28;20025;-86
2023/10/10 00:29:43;;;;;;;19.45;10.80;;;;;;;12.12;100.00;101328.47;5025871;28;20041;-86
2023/10/10 00:32:17;;;;;;;24.10;11.15;;;;;;;12.13;100.00;101336.34;5046589;28;20100;-85
2023/10/10 00:34:47;;;;;;;21.83;10.93;;;;;;;12.12;100.00;101326.63;5025151;28;20098;-85
2023/10/10 00:37:21;;;;;;;22.50;11.23;;;;;;;12.15;100.00;101333.50;5039230;28;20040;-86
2023/10/10 00:39:53;;;;;;;20.58;11.40;;;;;;;12.15;100.00;101328.16;5024566;28;20033;-85
2023/10/10 00:42:37;;;;;;;25.27;11.32;;;;;;;12.12;100.00;101331.97;5042597;28;20055;-85
2023/10/10 00:45:10;;;;;;;19.08;10.73;;;;;;;12.14;100.00;101329.16;5033218;28;20029;-86
2023/10/10 00:47:42;;;;;;;21.40;10.60;;;;;;;12.09;100.00;101324.28;5046735;28;20036;-85
2023/10/10 00:50:16;;;;;;;32.40;13.25;;;;;;;12.10;100.00;101319.75;5030611;28;20025;-85
2023/10/10 00:52:52;;;;;;;21.63;11.10;;;;;;;12.04;100.00;101305.19;5031969;28;20044;-86
2023/10/10 00:55:24;;;;;;;27.13;11.25;;;;;;;12.04;100.00;101303.34;5049923;28;20017;-85
2023/10/10 00:57:53;;;;;;;22.02;11.43;;;;;;;12.08;100.00;101309.22;5034682;28;20037;-86
2023/10/10 01:00:19;;;;;;;23.23;11.20;;;;;;;12.00;100.00;101314.53;5025651;28;20399;-85
2023/10/10 01:02:45;;;;;;;23.55;11.52;;;;;;;12.00;100.00;101298.47;5040034;28;20024;-85
2023/10/10 01:05:14;;;;;;;28.83;13.02;;;;;;;11.94;100.00;101301.75;5023584;28;20039;-86
2023/10/10 01:07:46;;;;;;;21.17;12.98;;;;;;;12.01;100.00;101311.69;5055914;28;20029;-86
2023/10/10 01:10:17;;;;;;;26.52;12.77;;;;;;;11.99;100.00;101302.16;5029566;28;20037;-85
2023/10/10 01:12:46;;;;;;;26.80;13.90;;;;;;;11.97;100.00;101304.97;5028526;28;20069;-85
2023/10/10 01:15:14;;;;;;;34.97;14.95;;;;;;;12.00;100.00;101310.00;5048408;28;20071;-86
2023/10/10 01:17:44;;;;;;;43.03;17.13;;;;;;;12.03;100.00;101312.38;5038852;28;20412;-86
2023/10/10 01:20:17;;;;;;;27.88;14.82;;;;;;;12.01;100.00;101311.69;5035540;28;20025;-86
2023/10/10 01:22:52;;;;;;;31.17;16.55;;;;;;;11.98;100.00;101295.94;5036292;28;20030;-85
2023/10/10 01:28:02;;;;;;;32.30;14.88;;;;;;;11.99;100.00;101308.34;5044507;28;20045;-86
2023/10/10 01:30:56;;;;;;;39.35;15.63;;;;;;;11.96;100.00;101307.81;5020772;28;20060;-85
2023/10/10 01:33:36;;;;;;;28.58;13.25;;;;;;;11.90;100.00;101311.13;5015903;28;20030;-86
2023/10/10 01:36:11;;;;;;;26.63;14.55;;;;;;;11.81;100.00;101292.28;5038949;28;20052;-86
2023/10/10 01:38:55;;;;;;;28.10;14.15;;;;;;;12.02;100.00;101307.19;5022349;28;20044;-86
2023/10/10 01:41:40;;;;;;;33.17;14.75;;;;;;;12.03;100.00;101303.50;5035837;28;20513;-86
2023/10/10 01:44:11;;;;;;;27.38;15.05;;;;;;;11.94;100.00;101285.72;5030746;28;20371;-85
2023/10/10 01:46:37;;;;;;;26.67;13.75;;;;;;;11.99;100.00;101286.94;5039795;28;20033;-85
2023/10/10 01:49:05;;;;;;;;;;;;;;;12.10;100.00;101314.41;5038884;28;20029;-85
2023/10/10 01:51:33;;;;;;;36.45;15.82;;;;;;;12.06;100.00;101311.22;5023044;28;19979;-85
2023/10/10 01:53:59;;;;;;;36.17;16.65;;;;;;;12.08;100.00;101314.59;5029147;28;20086;-85
2023/10/10 01:56:27;;;;;;;37.42;16.10;;;;;;;12.01;100.00;101314.38;5025382;28;20070;-85
2023/10/10 01:58:54;;;;;;;43.10;16.02;;;;;;;12.09;100.00;101324.28;5012817;28;20476;-86
2023/10/10 02:01:23;;;;;;;56.13;18.30;;;;;;;12.09;100.00;101323.44;5042567;28;20495;-85
2023/10/10 02:03:50;;;;;;;33.88;16.50;;;;;;;12.12;100.00;101334.66;5009910;28;20029;-85
2023/10/10 02:06:27;;;;;;;38.40;17.85;;;;;;;12.11;100.00;101329.50;5034007;28;20124;-86
2023/10/10 02:09:10;;;;;;;33.60;16.27;;;;;;;12.08;100.00;101325.28;5022026;28;20037;-85
2023/10/10 02:11:35;;;;;;;29.83;14.73;;;;;;;12.12;100.00;101339.19;5030744;28;20028;-86
2023/10/10 02:14:02;;;;;;;36.37;16.00;;;;;;;12.07;100.00;101328.94;5046757;28;20039;-86
2023/10/10 02:16:40;;;;;;;38.25;14.88;;;;;;;12.06;100.00;101323.75;5027253;28;20037;-85
2023/10/10 02:19:15;;;;;;;57.13;18.17;;;;;;;12.06;100.00;101319.25;5046398;28;20032;-85
2023/10/10 02:21:45;;;;;;;34.67;16.10;;;;;;;12.00;100.00;101317.19;5039141;28;20182;-87
2023/10/10 02:25:31;;;;;;;33.30;17.55;;;;;;;12.06;100.00;101318.38;5012536;28;20021;-87
2023/10/10 02:27:04;;;;;;;41.88;17.90;;;;;;;12.14;100.00;101339.88;5033197;28;20071;-85
2023/10/10 02:29:35;;;;;;;48.28;18.05;;;;;;;12.15;100.00;101333.50;5046665;28;20200;-85
2023/10/10 02:32:12;;;;;;;49.42;18.52;;;;;;;12.03;100.00;101322.22;5027885;28;20202;-86
2023/10/10 02:34:38;;;;;;;35.00;17.23;;;;;;;12.09;100.00;101324.28;5023096;28;20037;-85
2023/10/10 02:37:41;;;;;;;41.97;16.63;;;;;;;12.06;100.00;101335.31;5046640;28;20356;-86
2023/10/10 02:39:56;;;;;;;34.55;17.05;;;;;;;12.04;100.00;101319.41;5037816;28;20894;-85
2023/10/10 02:42:23;;;;;;;30.55;16.55;;;;;;;12.09;100.00;101331.47;5044206;28;20079;-85
2023/10/10 02:44:57;;;;;;;51.10;17.70;;;;;;;12.09;100.00;101336.84;5046879;28;20503;-86
2023/10/10 02:47:36;;;;;;;40.65;16.92;;;;;;;12.08;100.00;101337.81;5018718;28;20027;-86
2023/10/10 02:50:10;;;;;;;40.75;17.02;;;;;;;12.01;100.00;101332.25;5032260;28;20063;-85
2023/10/10 02:52:39;;;;;;;40.65;19.73;;;;;;;12.07;100.00;101334.31;5032866;28;20033;-85
2023/10/10 02:55:22;;;;;;;43.95;18.05;;;;;;;12.08;100.00;101325.28;5041013;28;20092;-86
2023/10/10 02:57:47;;;;;;;35.45;16.25;;;;;;;12.09;100.00;101326.13;5023575;28;20128;-86
2023/10/10 03:00:27;;;;;;;47.77;19.70;;;;;;;12.06;100.00;101329.97;5008778;28;20018;-86
2023/10/10 03:02:58;;;;;;;54.92;19.90;;;;;;;12.09;100.00;101323.44;5042724;28;20056;-85
2023/10/10 03:05:43;;;;;;;40.65;18.85;;;;;;;12.02;100.00;101312.53;5041533;28;20029;-85
2023/10/10 03:08:14;;;;;;;43.85;19.25;;;;;;;12.12;100.00;101328.47;5024436;28;20037;-86
2023/10/10 03:10:45;;;;;;;40.28;18.88;;;;;;;12.10;100.00;101325.13;5029597;28;20047;-86
2023/10/10 03:13:27;;;;;;;41.63;19.05;;;;;;;12.11;100.00;101324.97;5042520;28;20107;-86
2023/10/10 03:15:55;;;;;;;40.60;18.67;;;;;;;12.13;100.00;101325.66;5039353;28;20545;-85
2023/10/10 03:18:29;;;;;;;33.95;17.15;;;;;;;12.19;100.00;101335.72;5031616;28;20510;-85
2023/10/10 03:21:13;;;;;;;36.70;17.98;;;;;;;12.20;100.00;101329.38;5022388;28;20029;-85
2023/10/10 03:23:52;;;;;;;36.45;17.70;;;;;;;12.17;100.00;101327.00;5023076;28;20396;-86
2023/10/10 03:26:30;;;;;;;71.80;22.10;;;;;;;12.20;100.00;101325.88;5003416;28;20063;-86
2023/10/10 03:29:03;;;;;;;46.65;18.38;;;;;;;12.15;100.00;101315.63;5027800;28;20741;-86
2023/10/10 03:31:36;;;;;;;86.03;23.70;;;;;;;12.14;100.00;101313.94;5049043;28;20036;-85
2023/10/10 03:34:18;;;;;;;75.70;20.15;;;;;;;12.19;100.00;101314.28;5013794;28;20037;-86
2023/10/10 03:36:44;;;;;;;41.30;18.08;;;;;;;12.16;100.00;101305.75;5045303;28;20021;-86
2023/10/10 05:25:56;;;;;;;39.28;13.60;;;;;;;12.00;100.00;101362.69;5030490;28;20053;-86
2023/10/10 05:28:23;;;;;;;45.22;15.80;;;;;;;12.09;100.00;101360.91;5019553;28;20064;-88
2023/10/10 05:30:48;;;;;;;45.72;15.40;;;;;;;12.08;100.00;101368.13;5018618;28;20049;-87
2023/10/10 05:33:14;;;;;;;33.97;12.23;;;;;;;12.08;100.00;101360.09;5020074;28;20021;-86
2023/10/10 05:35:47;;;;;;;78.80;15.70;;;;;;;12.13;100.00;101363.13;5028788;28;20029;-89
2023/10/10 05:38:15;;;;;;;40.95;14.07;;;;;;;12.18;100.00;101365.31;5036884;28;20028;-89
2023/10/10 05:40:43;;;;;;;33.15;13.82;;;;;;;12.18;100.00;101370.69;5056237;28;20095;-91
2023/10/10 05:43:09;;;;;;;42.03;15.77;;;;;;;12.12;100.00;101358.75;5050324;28;20094;-89
2023/10/10 05:45:38;;;;;;;;;;;;;;;12.15;100.00;101371.84;5063382;23;20512;-77
2023/10/10 05:48:05;;;;;;;34.47;12.10;;;;;;;12.15;100.00;101361.13;5033824;28;19931;-79
2023/10/10 05:50:33;;;;;;;28.73;11.82;;;;;;;12.09;100.00;101359.06;5027809;28;20025;-79
2023/10/10 05:53:05;;;;;;;36.67;12.85;;;;;;;12.13;100.00;101352.41;5028748;28;20116;-78
2023/10/10 05:55:33;;;;;;;33.50;13.23;;;;;;;12.14;100.00;101358.59;5028467;28;20131;-78
2023/10/10 05:58:02;;;;;;;29.38;13.15;;;;;;;12.22;100.00;101358.63;5024153;28;20032;-78
2023/10/10 06:00:37;;;;;;;53.83;13.57;;;;;;;12.21;100.00;101354.28;5037568;28;20056;-78
2023/10/10 06:03:05;;;;;;;43.33;13.18;;;;;;;12.16;100.00;101351.25;5033921;28;20037;-79
2023/10/10 06:05:34;;;;;;;48.33;14.23;;;;;;;12.22;100.00;101353.28;5031010;28;20024;-79
2023/10/10 06:08:01;;;;;;;42.78;14.50;;;;;;;12.30;100.00;101341.81;5055159;23;20499;-78
2023/10/10 06:10:31;;;;;;;45.65;14.68;;;;;;;12.16;100.00;101335.19;5038972;28;20391;-77
2023/10/10 06:12:57;;;;;;;44.78;16.17;;;;;;;12.10;100.00;101317.91;5045177;28;20562;-78
2023/10/10 06:15:23;;;;;;;42.58;12.85;;;;;;;12.32;100.00;101335.28;5039420;28;20028;-78
2023/10/10 06:17:49;;;;;;;39.57;13.33;;;;;;;12.30;100.00;101325.75;5042689;28;20116;-78
2023/10/10 06:20:21;;;;;;;40.63;13.52;;;;;;;12.29;100.00;101324.03;5039302;28;20182;-77
2023/10/10 06:22:54;;;;;;;33.67;13.95;;;;;;;12.41;100.00;101337.00;5040117;28;20662;-77
2023/10/10 06:25:24;;;;;;;29.42;13.80;;;;;;;12.30;100.00;101323.91;5040524;28;20802;-77
2023/10/10 06:27:54;;;;;;;32.28;11.25;;;;;;;12.30;100.00;101333.78;5042087;28;20115;-77
2023/10/10 06:30:24;;;;;;;33.50;12.38;;;;;;;12.31;100.00;101338.13;5043522;28;20025;-77
2023/10/10 06:32:50;;;;;;;37.72;13.55;;;;;;;12.40;100.00;101342.50;5038521;28;20033;-78
2023/10/10 06:37:45;;;;;;;34.25;12.38;;;;;;;12.33;100.00;101346.84;5032094;28;20048;-78
2023/10/10 06:40:11;;;;;;;32.83;11.55;;;;;;;12.37;100.00;101350.88;5035495;28;20130;-77
2023/10/10 06:42:37;;;;;;;28.50;12.82;;;;;;;12.49;100.00;101354.13;5041911;28;20048;-77
2023/10/10 06:45:08;;;;;;;31.17;12.63;;;;;;;12.63;100.00;101354.34;5038932;28;20040;-78
2023/10/10 06:47:39;;;;;;;25.67;11.18;;;;;;;12.46;100.00;101337.38;5033966;28;20082;-78
2023/10/10 06:50:11;;;;;;;26.85;10.73;;;;;;;12.36;100.00;101319.72;5039439;28;20404;-77
2023/10/10 06:52:37;;;;;;;28.80;11.13;;;;;;;12.25;100.00;101327.06;5043426;28;20025;-78
2023/10/10 06:55:10;;;;;;;25.88;11.43;;;;;;;12.22;100.00;101330.06;5046612;28;20047;-78
2023/10/10 06:57:38;;;;;;;30.60;11.23;;;;;;;12.18;100.00;101328.69;5045216;28;20041;-77
2023/10/10 07:00:20;;;;;;;29.00;11.75;;;;;;;12.34;100.00;101343.13;5046042;28;20020;-78
2023/10/10 07:02:52;;;;;;;28.15;11.45;;;;;;;12.30;100.00;101331.09;5039934;28;20120;-77
2023/10/10 07:05:19;;;;;;;24.95;10.60;;;;;;;12.42;100.00;101340.53;5060653;28;20025;-78
2023/10/10 07:07:53;;;;;;;25.23;10.30;;;;;;;12.17;100.00;101320.81;5046209;28;20483;-77
2023/10/10 07:13:14;;;;;;;26.80;10.57;;;;;;;12.19;100.00;101325.00;4964624;28;20042;-77
2023/10/10 07:15:41;;;;;;;23.95;10.60;;;;;;;12.39;100.00;101335.50;4966684;28;20309;-77
2023/10/10 07:18:14;;;;;;;24.20;9.77;;;;;;;12.57;100.00;101338.06;4964424;28;20137;-77
2023/10/10 07:23:36;;;;;;;23.00;9.60;;;;;;;12.54;100.00;101325.84;4967269;28;20121;-77
2023/10/10 07:26:06;;;;;;;19.70;9.52;;;;;;;12.69;100.00;101328.75;4965933;28;20034;-77
2023/10/10 07:28:47;;;;;;;23.55;11.02;;;;;;;12.55;100.00;101322.19;4963373;28;20030;-77
2023/10/10 07:31:17;;;;;;;22.42;9.98;;;;;;;12.67;100.00;101312.84;4967802;28;20077;-78
2023/10/10 07:33:55;;;;;;;21.95;9.88;;;;;;;12.69;100.00;101304.66;4949220;28;20533;-77
2023/10/10 07:36:27;;;;;;;23.25;10.52;;;;;;;12.87;100.00;101315.22;4965476;28;20141;-77
2023/10/10 07:41:44;;;;;;;24.02;11.13;;;;;;;12.62;100.00;101307.13;4964659;28;20101;-77
2023/10/10 07:44:10;;;;;;;30.98;11.65;;;;;;;12.82;100.00;101322.94;4962986;28;20086;-77
2023/10/10 07:46:36;;;;;;;20.95;9.90;;;;;;;12.67;100.00;101310.16;4964369;28;20041;-77
2023/10/10 07:49:03;;;;;;;23.90;10.85;;;;;;;12.68;100.00;101306.47;4985168;28;20049;-77
2023/10/10 07:51:29;;;;;;;22.77;9.80;;;;;;;12.77;100.00;101318.06;5037475;28;20038;-77
2023/10/10 07:54:12;;;;;;;19.38;8.23;;;;;;;12.82;100.00;101307.69;5044797;28;20353;-77
2023/10/10 07:56:45;;;;;;;22.25;9.52;;;;;;;12.64;100.00;101298.91;5040331;28;20037;-77
2023/10/10 07:59:12;;;;;;;21.40;10.68;;;;;;;12.73;100.00;101303.28;5038521;28;20036;-77
2023/10/10 08:01:40;;;;;;;22.40;8.82;;;;;;;12.42;100.00;101293.16;5040468;28;20041;-77
2023/10/10 08:04:06;;;;;;;22.10;9.75;;;;;;;12.57;100.00;101301.44;5041299;28;20441;-77
2023/10/10 08:06:33;;;;;;;24.50;10.45;;;;;;;12.68;100.00;101302.94;5042654;28;20032;-77
2023/10/10 08:11:44;;;;;;;20.40;9.95;;;;;;;12.71;100.00;101296.44;5044518;28;20036;-77
2023/10/10 08:14:09;;;;;;;22.55;10.68;;;;;;;12.77;100.00;101301.97;5043581;28;20074;-77
2023/10/10 08:16:35;;;;;;;27.00;11.40;;;;;;;12.60;100.00;101289.56;5045927;28;20132;-77
2023/10/10 08:19:04;;;;;;;21.15;9.88;;;;;;;12.88;100.00;101307.03;5035673;28;20283;-77
2023/10/10 08:21:48;;;;;;;23.30;10.20;;;;;;;12.95;100.00;101293.00;5042668;28;20452;-77
2023/10/10 08:24:14;;;;;;;21.15;9.20;;;;;;;12.94;100.00;101285.94;5044514;28;20056;-77
2023/10/10 08:26:41;;;;;;;22.73;10.52;;;;;;;13.06;100.00;101282.78;5040917;28;20025;-77
2023/10/10 08:29:12;;;;;;;22.00;10.18;;;;;;;13.13;100.00;101284.78;5035574;28;20223;-77
2023/10/10 08:31:42;;;;;;;22.17;9.90;;;;;;;13.29;100.00;101290.19;5037784;28;20555;-77
2023/10/10 08:34:09;;;;;;;21.08;8.75;;;;;;;13.31;100.00;101274.78;5039377;28;20216;-78
2023/10/10 08:36:35;;;;;;;21.00;9.32;;;;;;;13.27;100.00;101255.53;5042411;28;20021;-77
2023/10/10 08:41:42;;;;;;;21.80;10.00;;;;;;;12.82;100.00;101270.16;5037416;28;20033;-77
2023/10/10 08:44:14;;;;;;;23.33;9.20;;;;;;;12.79;100.00;101273.19;5051564;28;20028;-78
2023/10/10 08:46:43;;;;;;;19.70;8.50;;;;;;;13.10;100.00;101288.63;5044598;28;20110;-77
2023/10/10 08:49:09;;;;;;;21.45;9.23;;;;;;;12.81;100.00;101257.78;5042264;28;20436;-77
2023/10/10 08:51:35;;;;;;;24.10;10.00;;;;;;;13.13;100.00;101282.09;5042757;28;20329;-77
2023/10/10 08:54:09;;;;;;;20.90;9.13;;;;;;;13.38;100.00;101277.63;5040136;28;20068;-77
2023/10/10 08:56:59;;;;;;;20.80;9.65;;;;;;;13.46;100.00;101265.06;5040896;28;20040;-77
2023/10/10 08:59:35;;;;;;;20.65;10.00;;;;;;;13.07;100.00;101262.19;5037925;28;20471;-78
2023/10/10 09:02:06;;;;;;;23.85;10.43;;;;;;;13.25;100.00;101280.78;5044403;28;20574;-77
2023/10/10 09:04:32;;;;;;;22.25;8.32;;;;;;;13.39;100.00;101272.13;5046480;28;20040;-78
2023/10/10 09:06:59;;;;;;;22.35;9.07;;;;;;;13.22;100.00;101246.25;5036513;28;20029;-77
2023/10/10 09:09:37;;;;;;;19.02;8.43;;;;;;;13.44;100.00;101267.06;5038346;28;20072;-77
2023/10/10 09:12:04;;;;;;;17.30;9.55;;;;;;;13.46;100.00;101278.47;5040413;28;20119;-76
2023/10/10 09:14:39;;;;;;;22.75;10.48;;;;;;;13.56;100.00;101280.16;5037950;28;20512;-77
2023/10/10 09:17:09;;;;;;;16.23;7.45;;;;;;;13.50;100.00;101258.34;5040155;28;20029;-77
2023/10/10 09:19:46;;;;;;;20.98;10.68;;;;;;;13.32;100.00;101264.88;5040047;28;20131;-77
2023/10/10 09:22:25;;;;;;;21.13;10.90;;;;;;;13.39;100.00;101285.53;5038807;28;20037;-77
2023/10/10 09:24:55;;;;;;;21.75;10.63;;;;;;;13.41;100.00;101296.91;5041750;28;20047;-77
2023/10/10 09:27:27;;;;;;;27.52;11.13;;;;;;;13.21;100.00;101299.03;5045117;28;20057;-76
2023/10/10 09:29:56;;;;;;;26.42;11.32;;;;;;;13.28;100.00;101332.25;5036177;28;20116;-77
2023/10/10 09:32:36;;;;;;;22.73;10.80;;;;;;;13.48;100.00;101338.13;5040328;28;20017;-76
2023/10/10 09:35:05;;;;;;;30.38;11.88;;;;;;;13.47;100.00;101324.91;5041325;28;20044;-77
2023/10/10 09:37:35;;;;;;;26.10;11.07;;;;;;;13.31;100.00;101323.06;5038548;28;20071;-75
2023/10/10 09:40:15;;;;;;;26.70;11.55;;;;;;;13.38;100.00;101318.69;5044545;28;20047;-77
2023/10/10 09:43:03;;;;;;;31.33;13.35;;;;;;;13.46;100.00;101350.03;5045456;28;20119;-76
2023/10/10 09:48:16;;;;;;;34.72;12.80;;;;;;;13.66;100.00;101340.66;5038784;28;20111;-77
2023/10/10 09:51:07;;;;;;;37.53;13.10;;;;;;;13.83;100.00;101349.53;5057791;28;20550;-77
2023/10/10 09:53:33;;;;;;;40.85;14.57;;;;;;;13.68;100.00;101332.44;5035945;28;20407;-77
2023/10/10 09:56:02;;;;;;;37.83;14.75;;;;;;;13.59;100.00;101341.50;5043010;28;20021;-77
2023/10/10 09:58:29;;;;;;;42.20;14.55;;;;;;;13.89;100.00;101353.41;5043448;28;20052;-77
2023/10/10 10:01:03;;;;;;;41.55;14.60;;;;;;;13.69;100.00;101344.84;5044001;28;20029;-77
2023/10/10 10:03:42;;;;;;;33.95;14.27;;;;;;;13.92;100.00;101353.88;5044114;28;20324;-77
2023/10/10 10:06:34;;;;;;;35.33;15.70;;;;;;;13.96;100.00;101350.88;5037353;28;20491;-77
2023/10/10 10:09:18;;;;;;;40.90;16.05;;;;;;;14.02;100.00;101340.28;5045561;28;20042;-79
2023/10/10 10:12:11;;;;;;;40.60;16.35;;;;;;;14.00;100.00;101326.22;5037383;28;20056;-77
2023/10/10 10:15:16;;;;;;;40.28;14.77;;;;;;;13.99;100.00;101329.06;5035516;28;20128;-77
2023/10/10 10:18:13;;;;;;;34.85;15.60;;;;;;;14.22;100.00;101329.19;5044003;28;20471;-77
2023/10/10 10:20:47;;;;;;;41.28;15.82;;;;;;;14.26;100.00;101325.16;5049757;28;20032;-79
2023/10/10 10:23:25;;;;;;;33.85;15.15;;;;;;;14.15;100.00;101320.97;5050501;28;20047;-78
2023/10/10 10:25:53;;;;;;;38.20;16.02;;;;;;;14.03;100.00;101325.03;5046443;28;20091;-77
2023/10/10 10:28:28;;;;;;;32.63;14.18;;;;;;;13.84;100.00;101332.44;5044786;28;20039;-77
2023/10/10 10:30:54;;;;;;;47.03;17.67;;;;;;;14.01;100.00;101329.72;5048967;28;20408;-77
2023/10/10 10:33:23;;;;;;;44.58;17.67;;;;;;;14.30;100.00;101331.81;5049192;28;20047;-77
2023/10/10 10:35:58;;;;;;;44.20;17.80;;;;;;;14.50;100.00;101333.09;5040671;28;20041;-77
2023/10/10 10:38:23;;;;;;;38.30;15.43;;;;;;;14.55;100.00;101329.94;5041359;28;20033;-77
2023/10/10 10:40:50;;;;;;;42.47;17.03;;;;;;;14.51;100.00;101305.22;5048219;28;20031;-77
2023/10/10 10:43:24;;;;;;;39.35;16.45;;;;;;;14.15;100.00;101286.06;5048545;28;20532;-78
2023/10/10 10:46:11;;;;;;;44.20;17.52;;;;;;;14.46;100.00;101310.28;5041798;28;20897;-76
2023/10/10 10:48:39;;;;;;;51.92;18.52;;;;;;;14.52;100.00;101298.00;5042605;28;20090;-77
2023/10/10 10:51:23;;;;;;;42.95;18.73;;;;;;;14.62;100.00;101301.34;5048740;28;20021;-79
2023/10/10 10:53:56;;;;;;;37.60;16.00;;;;;;;14.93;100.00;101300.50;5056550;28;20037;-79
2023/10/10 11:01:24;;;;;;;43.17;17.80;;;;;;;14.94;100.00;101265.38;5059156;28;19913;-79
2023/10/10 11:03:54;;;;;;;43.08;17.60;;;;;;;14.77;100.00;101251.22;5054047;28;20048;-78
2023/10/10 11:06:20;;;;;;;39.72;15.60;;;;;;;14.67;100.00;101250.59;5047626;28;20029;-78
2023/10/10 11:14:15;;;;;;;36.13;16.13;;;;;;;14.96;100.00;101254.44;5047567;28;20033;-77
2023/10/10 11:16:45;;;;;;;34.65;15.52;;;;;;;14.89;100.00;101250.78;5041274;28;20504;-77
2023/10/10 11:21:49;;;;;;;32.10;17.15;;;;;;;15.48;100.00;101239.41;5043647;28;20048;-78
2023/10/10 11:24:25;;;;;;;30.73;15.75;;;;;;;15.87;100.00;101222.19;5043478;28;20033;-78
2023/10/10 11:29:50;;;;;;;30.92;15.48;;;;;;;16.04;100.00;101169.81;5036303;28;20049;-77
2023/10/10 11:32:29;;;;;;;28.73;14.73;;;;;;;16.55;100.00;101153.63;5044637;28;20048;-78
2023/10/10 11:37:48;;;;;;;25.30;13.38;;;;;;;18.13;100.00;101046.88;5032540;28;20072;-78
2023/10/10 11:40:31;;;;;;;24.08;12.95;;;;;;;17.96;100.00;100985.31;5041555;28;20044;-78
2023/10/10 11:43:03;;;;;;;24.13;12.80;;;;;;;17.32;100.00;100914.53;5040353;28;20044;-79
2023/10/10 11:45:30;;;;;;;27.48;12.82;;;;;;;17.86;100.00;100942.50;5046297;28;20037;-78
2023/10/10 11:48:00;;;;;;;22.20;11.30;;;;;;;17.97;100.00;100874.38;5048352;28;20040;-78
2023/10/10 11:50:43;;;;;;;21.33;11.00;;;;;;;18.03;100.00;100821.41;5051470;28;20048;-78
2023/10/10 11:53:12;;;;;;;21.35;10.27;;;;;;;18.22;100.00;100830.50;5047503;28;20048;-79
2023/10/10 11:55:40;;;;;;;20.08;10.77;;;;;;;18.07;100.00;100811.81;5043959;28;20036;-78
2023/10/10 11:58:08;;;;;;;18.33;10.18;;;;;;;17.63;100.00;100765.53;5045353;28;20033;-78
2023/10/10 12:00:43;;;;;;;15.43;8.32;;;;;;;17.62;100.00;100817.84;5050097;28;20391;-78
2023/10/10 12:03:09;;;;;;;24.15;9.77;;;;;;;17.96;100.00;100843.00;5037526;28;20122;-78
2023/10/10 12:08:01;;;;;;;15.17;8.60;;;;;;;18.45;100.00;100747.06;5039338;28;20459;-79
2023/10/10 12:10:47;;;;;;;15.68;8.18;;;;;;;17.78;100.00;100654.59;5051693;28;20279;-79
2023/10/10 12:13:25;;;;;;;13.82;7.88;;;;;;;17.91;100.00;100764.47;5051073;28;20040;-78
2023/10/10 12:15:51;;;;;;;12.82;8.40;;;;;;;17.49;100.00;100793.56;5061387;28;20041;-79
2023/10/10 12:18:17;;;;;;;18.40;7.97;;;;;;;17.77;100.00;100808.69;5042964;28;20051;-79
2023/10/10 12:20:44;;;;;;;15.93;6.38;;;;;;;17.69;100.00;100824.06;5041559;28;20040;-78
2023/10/10 12:23:15;;;;;;;8.95;6.38;;;;;;;17.79;100.00;100841.72;5051035;28;20108;-79
2023/10/10 12:25:41;;;;;;;9.18;5.50;;;;;;;17.87;100.00;100825.34;5050769;28;20041;-79
2023/10/10 12:28:12;;;;;;;8.07;5.20;;;;;;;17.41;100.00;100764.06;5043319;28;20029;-79
2023/10/10 12:30:40;;;;;;;8.60;4.20;;;;;;;17.61;100.00;100809.97;5050284;28;20302;-78
2023/10/10 12:33:12;;;;;;;14.50;4.40;;;;;;;16.97;100.00;100774.34;5049920;28;20033;-78
2023/10/10 12:35:42;;;;;;;5.45;3.75;;;;;;;17.36;100.00;100871.78;5044868;28;20033;-79
2023/10/10 12:38:08;;;;;;;7.65;3.45;;;;;;;17.50;100.00;100843.78;5050962;28;20033;-79
2023/10/10 12:40:33;;;;;;;7.85;3.60;;;;;;;17.35;100.00;100827.78;5042558;28;20108;-78
2023/10/10 12:43:03;;;;;;;9.63;3.20;;;;;;;17.24;100.00;100796.84;5036365;28;20094;-78
2023/10/10 12:45:29;;;;;;;9.90;3.13;;;;;;;17.24;100.00;100794.13;5040723;28;20028;-79
2023/10/10 12:47:58;;;;;;;10.23;2.92;;;;;;;17.53;100.00;100837.97;5039113;28;20033;-79
2023/10/10 12:50:26;;;;;;;5.07;2.78;;;;;;;17.59;100.00;100876.81;5044097;28;20120;-79
2023/10/10 12:53:07;;;;;;;7.13;3.70;;;;;;;17.58;100.00;100846.28;5041707;28;20020;-79
2023/10/10 12:55:46;;;;;;;5.22;3.03;;;;;;;17.60;100.00;100852.31;5043584;28;20033;-79
2023/10/10 12:58:15;;;;;;;10.57;3.15;;;;;;;17.30;100.00;100790.63;5032517;28;20036;-78
2023/10/10 13:00:51;;;;;;;6.68;3.17;;;;;;;17.39;100.00;100850.59;5093640;27;20384;-80
2023/10/10 13:03:27;;;;;;;7.80;3.00;;;;;;;17.23;100.00;100840.19;5097695;28;20118;-80
2023/10/10 13:05:58;;;;;;;5.07;2.80;;;;;;;17.18;100.00;100881.28;5095081;28;20043;-80
2023/10/10 13:08:48;;;;;;;5.90;2.92;;;;;;;17.25;100.00;100865.94;5103328;28;20624;-79
2023/10/10 13:11:20;;;;;;;5.22;3.10;;;;;;;17.29;100.00;100904.97;5096398;28;20040;-80
2023/10/10 13:13:56;;;;;;;6.30;3.38;;;;;;;17.08;100.00;100897.03;5098545;28;20047;-78
2023/10/10 13:16:27;;;;;;;;;;;;;;;17.19;100.00;100942.31;5102067;28;20110;-79
2023/10/10 13:18:55;;;;;;;7.75;3.97;;;;;;;16.80;100.00;100897.94;5097278;28;19911;-79
2023/10/10 13:21:22;;;;;;;5.13;3.30;;;;;;;16.78;100.00;100951.19;5106578;28;20057;-80
2023/10/10 13:23:52;;;;;;;8.88;3.75;;;;;;;17.03;100.00;100973.16;5100885;28;20398;-80
2023/10/10 13:26:18;;;;;;;4.80;3.28;;;;;;;17.02;100.00;100940.97;5102573;28;20053;-79
2023/10/10 13:28:44;;;;;;;6.53;3.50;;;;;;;17.03;100.00;100942.66;5107013;28;20451;-79
2023/10/10 13:31:14;;;;;;;7.93;3.53;;;;;;;16.97;100.00;100930.78;5103436;28;20039;-78
2023/10/10 13:33:40;;;;;;;10.32;3.50;;;;;;;16.89;100.00;100947.13;5101747;28;20027;-79
2023/10/10 13:36:09;;;;;;;18.85;4.15;;;;;;;16.73;100.00;100942.88;5094286;28;20096;-79
2023/10/10 13:38:35;;;;;;;6.43;2.80;;;;;;;16.92;100.00;100972.88;5102322;28;20024;-79
2023/10/10 13:41:03;;;;;;;4.83;2.60;;;;;;;16.76;100.00;100936.25;5075002;28;20518;-80
2023/10/10 13:43:28;;;;;;;5.18;3.03;;;;;;;16.75;100.00;100927.31;5095843;28;20489;-80
2023/10/10 13:45:57;;;;;;;5.70;3.83;;;;;;;16.60;100.00;100940.06;5094594;28;20020;-79
2023/10/10 13:48:24;;;;;;;8.45;3.97;;;;;;;16.63;100.00;100955.88;5099249;28;20044;-80
2023/10/10 13:50:56;;;;;;;7.85;4.38;;;;;;;16.70;100.00;100958.63;5096172;28;20055;-79
2023/10/10 13:53:21;;;;;;;9.57;5.85;;;;;;;16.81;100.00;100955.38;5101841;28;20119;-80
2023/10/10 13:55:47;;;;;;;7.53;4.90;;;;;;;16.54;100.00;100922.00;5088092;28;20123;-80